sensor_id;sensor_type;location;lat;lon;timestamp;temperature;humidity
12115;DHT22;6121;49.810;6.418;2022-10-30T00:00:16;12.40;99.90
12115;DHT22;6121;49.810;6.418;2022-10-30T00:02:42;12.40;99.90
12115;DHT22;6121;49.810;6.418;2022-10-30T00:05:07;12.40;99.90
12115;DHT22;6121;49.810;6.418;2022-10-30T00:07:33;12.40;99.90
12115;DHT22;6121;49.810;6.418;2022-10-30T00:09:59;12.40;99.90
12115;DHT22;6121;49.810;6.418;2022-10-30T00:12:24;12.40;99.90
12115;DHT22;6121;49.810;6.418;2022-10-30T00:14:50;12.40;99.90
12115;DHT22;6121;49.810;6.418;2022-10-30T00:17:16;12.40;99.90
12115;DHT22;6121;49.810;6.418;2022-10-30T00:19:41;12.40;99.90
12115;DHT22;6121;49.810;6.418;2022-10-30T00:22:08;12.40;99.90
12115;DHT22;6121;49.810;6.418;2022-10-30T00:24:33;12.30;99.90
12115;DHT22;6121;49.810;6.418;2022-10-30T00:26:59;12.30;99.90
12115;DHT22;6121;49.810;6.418;2022-10-30T00:29:24;12.20;99.90
12115;DHT22;6121;49.810;6.418;2022-10-30T00:31:51;12.20;99.90
12115;DHT22;6121;49.810;6.418;2022-10-30T00:34:17;12.20;99.90
12115;DHT22;6121;49.810;6.418;2022-10-30T00:36:43;12.20;99.90
12115;DHT22;6121;49.810;6.418;2022-10-30T00:39:08;12.20;99.90
12115;DHT22;6121;49.810;6.418;2022-10-30T00:41:34;12.20;99.90
12115;DHT22;6121;49.810;6.418;2022-10-30T00:44:01;12.10;99.90
12115;DHT22;6121;49.810;6.418;2022-10-30T00:46:31;12.10;99.90
12115;DHT22;6121;49.810;6.418;2022-10-30T00:49:14;12.10;99.90
12115;DHT22;6121;49.810;6.418;2022-10-30T00:51:44;12.10;99.90
12115;DHT22;6121;49.810;6.418;2022-10-30T00:54:10;11.90;99.90
12115;DHT22;6121;49.810;6.418;2022-10-30T00:56:36;12.00;99.90
12115;DHT22;6121;49.810;6.418;2022-10-30T00:59:07;12.00;99.90
12115;DHT22;6121;49.810;6.418;2022-10-30T01:01:37;12.00;99.90
12115;DHT22;6121;49.810;6.418;2022-10-30T01:04:05;11.90;99.90
12115;DHT22;6121;49.810;6.418;2022-10-30T01:06:33;12.00;99.90
12115;DHT22;6121;49.810;6.418;2022-10-30T01:09:01;12.00;99.90
12115;DHT22;6121;49.810;6.418;2022-10-30T01:11:27;12.00;99.90
12115;DHT22;6121;49.810;6.418;2022-10-30T01:13:55;12.00;99.90
12115;DHT22;6121;49.810;6.418;2022-10-30T01:35:15;11.90;99.90
12115;DHT22;6121;49.810;6.418;2022-10-30T01:37:53;11.90;99.90
12115;DHT22;6121;49.810;6.418;2022-10-30T01:40:19;11.90;99.90
12115;DHT22;6121;49.810;6.418;2022-10-30T01:42:51;11.90;99.90
12115;DHT22;6121;49.810;6.418;2022-10-30T01:51:37;11.90;99.90
12115;DHT22;6121;49.810;6.418;2022-10-30T01:59:30;11.90;99.90
12115;DHT22;6121;49.810;6.418;2022-10-30T02:01:57;11.90;99.90
12115;DHT22;6121;49.810;6.418;2022-10-30T02:04:23;11.80;99.90
12115;DHT22;6121;49.810;6.418;2022-10-30T02:06:50;11.80;99.90
12115;DHT22;6121;49.810;6.418;2022-10-30T02:09:16;11.70;99.90
12115;DHT22;6121;49.810;6.418;2022-10-30T02:11:43;11.70;99.90
12115;DHT22;6121;49.810;6.418;2022-10-30T02:14:10;11.80;99.90
12115;DHT22;6121;49.810;6.418;2022-10-30T02:16:40;11.80;99.90
12115;DHT22;6121;49.810;6.418;2022-10-30T02:19:07;11.70;99.90
12115;DHT22;6121;49.810;6.418;2022-10-30T02:21:32;11.70;99.90
12115;DHT22;6121;49.810;6.418;2022-10-30T02:23:58;11.60;99.90
12115;DHT22;6121;49.810;6.418;2022-10-30T02:26:24;11.70;99.90
12115;DHT22;6121;49.810;6.418;2022-10-30T02:28:49;11.70;99.90
12115;DHT22;6121;49.810;6.418;2022-10-30T02:31:15;11.70;99.90
12115;DHT22;6121;49.810;6.418;2022-10-30T02:33:47;11.70;99.90
12115;DHT22;6121;49.810;6.418;2022-10-30T02:36:13;11.70;99.90
12115;DHT22;6121;49.810;6.418;2022-10-30T02:38:40;11.70;99.90
12115;DHT22;6121;49.810;6.418;2022-10-30T02:41:06;11.70;99.90
12115;DHT22;6121;49.810;6.418;2022-10-30T02:43:31;11.60;99.90
12115;DHT22;6121;49.810;6.418;2022-10-30T02:45:57;11.70;99.90
12115;DHT22;6121;49.810;6.418;2022-10-30T02:48:23;11.40;99.90
12115;DHT22;6121;49.810;6.418;2022-10-30T02:50:48;11.40;99.90
12115;DHT22;6121;49.810;6.418;2022-10-30T02:53:14;11.40;99.90
12115;DHT22;6121;49.810;6.418;2022-10-30T02:55:39;11.40;99.90
12115;DHT22;6121;49.810;6.418;2022-10-30T02:58:05;11.40;99.90
12115;DHT22;6121;49.810;6.418;2022-10-30T03:00:30;11.40;99.90
12115;DHT22;6121;49.810;6.418;2022-10-30T03:02:56;11.40;99.90
12115;DHT22;6121;49.810;6.418;2022-10-30T03:05:22;11.50;99.90
12115;DHT22;6121;49.810;6.418;2022-10-30T03:07:48;11.50;99.90
12115;DHT22;6121;49.810;6.418;2022-10-30T03:10:16;11.60;99.90
12115;DHT22;6121;49.810;6.418;2022-10-30T03:12:42;11.60;99.90
12115;DHT22;6121;49.810;6.418;2022-10-30T03:15:08;11.60;99.90
12115;DHT22;6121;49.810;6.418;2022-10-30T03:17:33;11.60;99.90
12115;DHT22;6121;49.810;6.418;2022-10-30T03:19:59;11.60;99.90
12115;DHT22;6121;49.810;6.418;2022-10-30T03:22:24;11.70;99.90
12115;DHT22;6121;49.810;6.418;2022-10-30T03:24:50;11.60;99.90
12115;DHT22;6121;49.810;6.418;2022-10-30T03:27:16;11.60;99.90
12115;DHT22;6121;49.810;6.418;2022-10-30T03:29:41;11.40;99.90
12115;DHT22;6121;49.810;6.418;2022-10-30T03:32:10;11.40;99.90
12115;DHT22;6121;49.810;6.418;2022-10-30T03:34:36;11.40;99.90
12115;DHT22;6121;49.810;6.418;2022-10-30T03:37:02;11.50;99.90
12115;DHT22;6121;49.810;6.418;2022-10-30T03:39:28;11.50;99.90
12115;DHT22;6121;49.810;6.418;2022-10-30T03:41:53;11.40;99.90
12115;DHT22;6121;49.810;6.418;2022-10-30T03:44:19;11.40;99.90
12115;DHT22;6121;49.810;6.418;2022-10-30T03:46:45;11.40;99.90
12115;DHT22;6121;49.810;6.418;2022-10-30T03:49:10;11.40;99.90
12115;DHT22;6121;49.810;6.418;2022-10-30T03:51:36;11.40;99.90
12115;DHT22;6121;49.810;6.418;2022-10-30T03:54:01;11.40;99.90
12115;DHT22;6121;49.810;6.418;2022-10-30T03:56:27;11.40;99.90
12115;DHT22;6121;49.810;6.418;2022-10-30T03:58:53;11.20;99.90
12115;DHT22;6121;49.810;6.418;2022-10-30T04:01:18;11.20;99.90
12115;DHT22;6121;49.810;6.418;2022-10-30T04:03:44;11.30;99.90
12115;DHT22;6121;49.810;6.418;2022-10-30T04:06:09;11.30;99.90
12115;DHT22;6121;49.810;6.418;2022-10-30T04:08:35;11.40;99.90
12115;DHT22;6121;49.810;6.418;2022-10-30T04:11:01;11.30;99.90
12115;DHT22;6121;49.810;6.418;2022-10-30T04:13:26;11.20;99.90
12115;DHT22;6121;49.810;6.418;2022-10-30T04:15:52;11.30;99.90
12115;DHT22;6121;49.810;6.418;2022-10-30T04:18:18;11.20;99.90
12115;DHT22;6121;49.810;6.418;2022-10-30T04:20:44;11.30;99.90
12115;DHT22;6121;49.810;6.418;2022-10-30T04:23:16;11.30;99.90
12115;DHT22;6121;49.810;6.418;2022-10-30T04:25:42;11.30;99.90
12115;DHT22;6121;49.810;6.418;2022-10-30T04:28:08;11.20;99.90
12115;DHT22;6121;49.810;6.418;2022-10-30T04:30:34;11.10;99.90
12115;DHT22;6121;49.810;6.418;2022-10-30T04:33:02;11.10;99.90
12115;DHT22;6121;49.810;6.418;2022-10-30T04:35:30;11.10;99.90
12115;DHT22;6121;49.810;6.418;2022-10-30T04:38:08;11.10;99.90
12115;DHT22;6121;49.810;6.418;2022-10-30T04:40:36;11.10;99.90
12115;DHT22;6121;49.810;6.418;2022-10-30T04:43:03;11.20;99.90
12115;DHT22;6121;49.810;6.418;2022-10-30T04:45:29;11.20;99.90
12115;DHT22;6121;49.810;6.418;2022-10-30T04:48:11;11.10;99.90
12115;DHT22;6121;49.810;6.418;2022-10-30T04:50:37;11.10;99.90
12115;DHT22;6121;49.810;6.418;2022-10-30T04:53:06;11.10;99.90
12115;DHT22;6121;49.810;6.418;2022-10-30T04:55:32;11.10;99.90
12115;DHT22;6121;49.810;6.418;2022-10-30T04:57:59;11.00;99.90
12115;DHT22;6121;49.810;6.418;2022-10-30T05:00:25;10.90;99.90
12115;DHT22;6121;49.810;6.418;2022-10-30T05:02:51;10.90;99.90
12115;DHT22;6121;49.810;6.418;2022-10-30T05:05:17;10.90;99.90
12115;DHT22;6121;49.810;6.418;2022-10-30T05:07:42;10.90;99.90
12115;DHT22;6121;49.810;6.418;2022-10-30T05:10:14;11.00;99.90
12115;DHT22;6121;49.810;6.418;2022-10-30T05:12:43;11.00;99.90
12115;DHT22;6121;49.810;6.418;2022-10-30T05:15:09;10.90;99.90
12115;DHT22;6121;49.810;6.418;2022-10-30T05:17:35;10.90;99.90
12115;DHT22;6121;49.810;6.418;2022-10-30T05:20:00;10.90;99.90
12115;DHT22;6121;49.810;6.418;2022-10-30T05:22:26;10.90;99.90
12115;DHT22;6121;49.810;6.418;2022-10-30T05:24:51;10.90;99.90
12115;DHT22;6121;49.810;6.418;2022-10-30T05:27:17;10.70;99.90
12115;DHT22;6121;49.810;6.418;2022-10-30T05:29:42;10.70;99.90
12115;DHT22;6121;49.810;6.418;2022-10-30T05:32:08;10.80;99.90
12115;DHT22;6121;49.810;6.418;2022-10-30T05:34:34;10.80;99.90
12115;DHT22;6121;49.810;6.418;2022-10-30T05:36:59;10.80;99.90
12115;DHT22;6121;49.810;6.418;2022-10-30T05:39:26;10.80;99.90
12115;DHT22;6121;49.810;6.418;2022-10-30T05:41:51;10.80;99.90
12115;DHT22;6121;49.810;6.418;2022-10-30T05:44:17;10.80;99.90
12115;DHT22;6121;49.810;6.418;2022-10-30T05:46:43;10.80;99.90
12115;DHT22;6121;49.810;6.418;2022-10-30T05:49:08;10.80;99.90
12115;DHT22;6121;49.810;6.418;2022-10-30T05:51:34;10.70;99.90
12115;DHT22;6121;49.810;6.418;2022-10-30T05:53:59;10.80;99.90
12115;DHT22;6121;49.810;6.418;2022-10-30T05:56:25;10.80;99.90
12115;DHT22;6121;49.810;6.418;2022-10-30T05:58:50;10.80;99.90
12115;DHT22;6121;49.810;6.418;2022-10-30T06:01:16;10.80;99.90
12115;DHT22;6121;49.810;6.418;2022-10-30T06:03:42;10.70;99.90
12115;DHT22;6121;49.810;6.418;2022-10-30T06:06:08;10.70;99.90
12115;DHT22;6121;49.810;6.418;2022-10-30T06:08:34;10.70;99.90
12115;DHT22;6121;49.810;6.418;2022-10-30T06:10:59;10.60;99.90
12115;DHT22;6121;49.810;6.418;2022-10-30T06:13:25;10.60;99.90
12115;DHT22;6121;49.810;6.418;2022-10-30T06:15:54;10.70;99.90
12115;DHT22;6121;49.810;6.418;2022-10-30T06:18:20;10.70;99.90
12115;DHT22;6121;49.810;6.418;2022-10-30T06:20:46;10.70;99.90
12115;DHT22;6121;49.810;6.418;2022-10-30T06:23:12;10.70;99.90
12115;DHT22;6121;49.810;6.418;2022-10-30T06:25:37;10.70;99.90
12115;DHT22;6121;49.810;6.418;2022-10-30T06:28:03;10.70;99.90
12115;DHT22;6121;49.810;6.418;2022-10-30T06:30:29;10.60;99.90
12115;DHT22;6121;49.810;6.418;2022-10-30T06:32:59;10.60;99.90
12115;DHT22;6121;49.810;6.418;2022-10-30T06:35:26;10.70;99.90
12115;DHT22;6121;49.810;6.418;2022-10-30T06:37:53;10.60;99.90
12115;DHT22;6121;49.810;6.418;2022-10-30T06:40:20;10.60;99.90
12115;DHT22;6121;49.810;6.418;2022-10-30T06:42:47;10.60;99.90
12115;DHT22;6121;49.810;6.418;2022-10-30T06:45:14;10.60;99.90
12115;DHT22;6121;49.810;6.418;2022-10-30T06:47:40;10.60;99.90
12115;DHT22;6121;49.810;6.418;2022-10-30T06:50:08;10.60;99.90
12115;DHT22;6121;49.810;6.418;2022-10-30T06:52:34;10.70;99.90
12115;DHT22;6121;49.810;6.418;2022-10-30T06:55:00;10.60;99.90
12115;DHT22;6121;49.810;6.418;2022-10-30T06:57:25;10.60;99.90
12115;DHT22;6121;49.810;6.418;2022-10-30T06:59:51;10.60;99.90
12115;DHT22;6121;49.810;6.418;2022-10-30T07:02:17;10.60;99.90
12115;DHT22;6121;49.810;6.418;2022-10-30T07:04:42;10.70;99.90
12115;DHT22;6121;49.810;6.418;2022-10-30T07:07:10;10.70;99.90
12115;DHT22;6121;49.810;6.418;2022-10-30T07:09:36;10.70;99.90
12115;DHT22;6121;49.810;6.418;2022-10-30T07:12:01;10.80;99.90
12115;DHT22;6121;49.810;6.418;2022-10-30T07:14:27;10.80;99.90
12115;DHT22;6121;49.810;6.418;2022-10-30T07:16:55;10.80;99.90
12115;DHT22;6121;49.810;6.418;2022-10-30T07:19:22;10.70;99.90
12115;DHT22;6121;49.810;6.418;2022-10-30T07:21:48;10.70;99.90
12115;DHT22;6121;49.810;6.418;2022-10-30T07:24:13;10.80;99.90
12115;DHT22;6121;49.810;6.418;2022-10-30T07:26:39;10.90;99.90
12115;DHT22;6121;49.810;6.418;2022-10-30T07:29:05;10.70;99.90
12115;DHT22;6121;49.810;6.418;2022-10-30T07:31:31;10.80;99.90
12115;DHT22;6121;49.810;6.418;2022-10-30T07:33:56;10.90;99.90
12115;DHT22;6121;49.810;6.418;2022-10-30T07:36:22;10.70;99.90
12115;DHT22;6121;49.810;6.418;2022-10-30T07:38:49;10.70;99.90
12115;DHT22;6121;49.810;6.418;2022-10-30T07:41:16;10.80;99.90
12115;DHT22;6121;49.810;6.418;2022-10-30T07:43:42;10.70;99.90
12115;DHT22;6121;49.810;6.418;2022-10-30T07:46:08;10.70;99.90
12115;DHT22;6121;49.810;6.418;2022-10-30T07:48:33;10.80;99.90
12115;DHT22;6121;49.810;6.418;2022-10-30T07:50:59;10.90;99.90
12115;DHT22;6121;49.810;6.418;2022-10-30T07:53:24;10.80;99.90
12115;DHT22;6121;49.810;6.418;2022-10-30T07:55:50;10.80;99.90
12115;DHT22;6121;49.810;6.418;2022-10-30T07:58:16;10.90;99.90
12115;DHT22;6121;49.810;6.418;2022-10-30T08:00:41;10.90;99.90
12115;DHT22;6121;49.810;6.418;2022-10-30T08:03:08;10.80;99.90
12115;DHT22;6121;49.810;6.418;2022-10-30T08:05:35;10.90;99.90
12115;DHT22;6121;49.810;6.418;2022-10-30T08:08:00;10.90;99.90
12115;DHT22;6121;49.810;6.418;2022-10-30T08:10:26;10.80;99.90
12115;DHT22;6121;49.810;6.418;2022-10-30T08:12:51;11.00;99.90
12115;DHT22;6121;49.810;6.418;2022-10-30T08:15:17;11.00;99.90
12115;DHT22;6121;49.810;6.418;2022-10-30T08:17:44;11.10;99.90
12115;DHT22;6121;49.810;6.418;2022-10-30T08:20:12;11.10;99.90
12115;DHT22;6121;49.810;6.418;2022-10-30T08:22:52;11.20;99.90
12115;DHT22;6121;49.810;6.418;2022-10-30T08:25:19;11.10;99.90
12115;DHT22;6121;49.810;6.418;2022-10-30T08:27:55;11.00;99.90
12115;DHT22;6121;49.810;6.418;2022-10-30T08:30:23;11.10;99.90
12115;DHT22;6121;49.810;6.418;2022-10-30T08:32:49;11.10;99.90
12115;DHT22;6121;49.810;6.418;2022-10-30T08:35:15;11.10;99.90
12115;DHT22;6121;49.810;6.418;2022-10-30T08:37:41;11.00;99.90
12115;DHT22;6121;49.810;6.418;2022-10-30T08:40:08;11.00;99.90
12115;DHT22;6121;49.810;6.418;2022-10-30T08:42:34;11.20;99.90
12115;DHT22;6121;49.810;6.418;2022-10-30T08:44:59;11.30;99.90
12115;DHT22;6121;49.810;6.418;2022-10-30T08:47:25;11.30;99.90
12115;DHT22;6121;49.810;6.418;2022-10-30T08:49:50;11.40;99.90
12115;DHT22;6121;49.810;6.418;2022-10-30T08:52:16;11.40;99.90
12115;DHT22;6121;49.810;6.418;2022-10-30T08:54:42;11.70;99.90
12115;DHT22;6121;49.810;6.418;2022-10-30T08:57:07;11.80;99.90
12115;DHT22;6121;49.810;6.418;2022-10-30T08:59:33;11.80;99.90
12115;DHT22;6121;49.810;6.418;2022-10-30T09:01:58;11.90;99.90
12115;DHT22;6121;49.810;6.418;2022-10-30T09:04:24;11.80;99.90
12115;DHT22;6121;49.810;6.418;2022-10-30T09:06:49;11.80;99.90
12115;DHT22;6121;49.810;6.418;2022-10-30T09:09:15;11.80;99.90
12115;DHT22;6121;49.810;6.418;2022-10-30T09:11:40;11.80;99.90
12115;DHT22;6121;49.810;6.418;2022-10-30T09:14:06;11.90;99.90
12115;DHT22;6121;49.810;6.418;2022-10-30T09:16:31;11.80;99.90
12115;DHT22;6121;49.810;6.418;2022-10-30T09:18:57;11.70;99.90
12115;DHT22;6121;49.810;6.418;2022-10-30T09:21:23;11.50;99.90
12115;DHT22;6121;49.810;6.418;2022-10-30T09:23:48;11.70;99.90
12115;DHT22;6121;49.810;6.418;2022-10-30T09:26:14;11.90;99.90
12115;DHT22;6121;49.810;6.418;2022-10-30T09:28:39;11.70;99.90
12115;DHT22;6121;49.810;6.418;2022-10-30T09:31:05;11.60;99.90
12115;DHT22;6121;49.810;6.418;2022-10-30T09:33:30;11.60;99.90
12115;DHT22;6121;49.810;6.418;2022-10-30T09:35:56;11.90;99.90
12115;DHT22;6121;49.810;6.418;2022-10-30T09:38:22;12.00;99.90
12115;DHT22;6121;49.810;6.418;2022-10-30T09:44:00;12.00;99.90
12115;DHT22;6121;49.810;6.418;2022-10-30T09:49:35;12.50;99.90
12115;DHT22;6121;49.810;6.418;2022-10-30T09:58:20;13.80;99.90
12115;DHT22;6121;49.810;6.418;2022-10-30T10:00:54;14.00;99.90
12115;DHT22;6121;49.810;6.418;2022-10-30T10:03:57;14.30;99.90
12115;DHT22;6121;49.810;6.418;2022-10-30T10:06:24;14.50;99.90
12115;DHT22;6121;49.810;6.418;2022-10-30T10:08:53;15.00;99.90
12115;DHT22;6121;49.810;6.418;2022-10-30T10:11:25;15.80;99.90
12115;DHT22;6121;49.810;6.418;2022-10-30T10:14:12;17.90;99.90
12115;DHT22;6121;49.810;6.418;2022-10-30T10:16:39;18.30;99.90
12115;DHT22;6121;49.810;6.418;2022-10-30T10:19:18;18.30;99.90
12115;DHT22;6121;49.810;6.418;2022-10-30T10:24:35;18.10;99.90
12115;DHT22;6121;49.810;6.418;2022-10-30T10:27:22;17.80;99.90
12115;DHT22;6121;49.810;6.418;2022-10-30T10:30:04;17.00;99.90
12115;DHT22;6121;49.810;6.418;2022-10-30T10:32:43;16.70;99.90
12115;DHT22;6121;49.810;6.418;2022-10-30T10:40:56;16.90;99.90
12115;DHT22;6121;49.810;6.418;2022-10-30T10:48:49;16.80;99.90
12115;DHT22;6121;49.810;6.418;2022-10-30T10:51:23;16.80;99.90
12115;DHT22;6121;49.810;6.418;2022-10-30T10:53:59;18.10;99.90
12115;DHT22;6121;49.810;6.418;2022-10-30T10:56:34;20.20;99.90
12115;DHT22;6121;49.810;6.418;2022-10-30T10:59:04;22.10;99.90
12115;DHT22;6121;49.810;6.418;2022-10-30T11:01:37;21.90;99.90
12115;DHT22;6121;49.810;6.418;2022-10-30T11:04:25;22.20;99.90
12115;DHT22;6121;49.810;6.418;2022-10-30T11:06:53;22.00;99.90
12115;DHT22;6121;49.810;6.418;2022-10-30T11:09:23;23.40;99.90
12115;DHT22;6121;49.810;6.418;2022-10-30T11:11:52;24.40;99.90
12115;DHT22;6121;49.810;6.418;2022-10-30T11:14:26;24.60;99.90
12115;DHT22;6121;49.810;6.418;2022-10-30T11:19:24;24.60;99.90
12115;DHT22;6121;49.810;6.418;2022-10-30T11:21:52;24.30;99.90
12115;DHT22;6121;49.810;6.418;2022-10-30T11:26:57;23.30;99.90
12115;DHT22;6121;49.810;6.418;2022-10-30T11:29:28;22.80;99.90
12115;DHT22;6121;49.810;6.418;2022-10-30T11:32:00;22.40;99.90
12115;DHT22;6121;49.810;6.418;2022-10-30T11:34:36;21.90;99.90
12115;DHT22;6121;49.810;6.418;2022-10-30T11:37:02;21.60;99.90
12115;DHT22;6121;49.810;6.418;2022-10-30T11:39:33;21.40;99.90
12115;DHT22;6121;49.810;6.418;2022-10-30T11:42:05;21.10;99.90
12115;DHT22;6121;49.810;6.418;2022-10-30T11:44:37;20.90;99.90
12115;DHT22;6121;49.810;6.418;2022-10-30T11:47:05;20.20;99.90
12115;DHT22;6121;49.810;6.418;2022-10-30T11:49:35;20.40;99.90
12115;DHT22;6121;49.810;6.418;2022-10-30T11:52:02;20.50;99.90
12115;DHT22;6121;49.810;6.418;2022-10-30T11:54:28;20.40;99.90
12115;DHT22;6121;49.810;6.418;2022-10-30T11:56:54;20.30;99.90
12115;DHT22;6121;49.810;6.418;2022-10-30T11:59:22;20.20;99.90
12115;DHT22;6121;49.810;6.418;2022-10-30T12:04:25;20.00;99.90
12115;DHT22;6121;49.810;6.418;2022-10-30T12:09:42;20.00;99.90
12115;DHT22;6121;49.810;6.418;2022-10-30T12:12:31;20.00;99.90
12115;DHT22;6121;49.810;6.418;2022-10-30T12:15:08;19.90;99.90
12115;DHT22;6121;49.810;6.418;2022-10-30T12:17:37;19.80;99.90
12115;DHT22;6121;49.810;6.418;2022-10-30T12:20:04;19.60;99.90
12115;DHT22;6121;49.810;6.418;2022-10-30T12:22:31;19.50;99.90
12115;DHT22;6121;49.810;6.418;2022-10-30T12:25:00;19.60;99.90
12115;DHT22;6121;49.810;6.418;2022-10-30T12:27:28;19.60;99.90
12115;DHT22;6121;49.810;6.418;2022-10-30T12:30:05;19.60;99.90
12115;DHT22;6121;49.810;6.418;2022-10-30T12:35:20;19.60;99.90
12115;DHT22;6121;49.810;6.418;2022-10-30T12:37:47;19.60;99.90
12115;DHT22;6121;49.810;6.418;2022-10-30T12:40:25;19.70;99.90
12115;DHT22;6121;49.810;6.418;2022-10-30T12:43:16;19.70;99.90
12115;DHT22;6121;49.810;6.418;2022-10-30T12:45:46;19.80;99.90
12115;DHT22;6121;49.810;6.418;2022-10-30T12:48:36;19.80;99.90
12115;DHT22;6121;49.810;6.418;2022-10-30T12:51:15;19.80;99.90
12115;DHT22;6121;49.810;6.418;2022-10-30T12:54:21;19.90;99.90
12115;DHT22;6121;49.810;6.418;2022-10-30T12:57:02;19.90;99.90
12115;DHT22;6121;49.810;6.418;2022-10-30T12:59:45;20.00;99.90
12115;DHT22;6121;49.810;6.418;2022-10-30T13:02:58;19.90;99.90
12115;DHT22;6121;49.810;6.418;2022-10-30T13:05:55;19.80;99.90
12115;DHT22;6121;49.810;6.418;2022-10-30T13:08:35;19.80;99.90
12115;DHT22;6121;49.810;6.418;2022-10-30T13:13:46;19.80;99.90
12115;DHT22;6121;49.810;6.418;2022-10-30T13:16:15;19.90;99.90
12115;DHT22;6121;49.810;6.418;2022-10-30T13:18:42;19.90;99.90
12115;DHT22;6121;49.810;6.418;2022-10-30T13:21:54;20.00;99.90
12115;DHT22;6121;49.810;6.418;2022-10-30T13:24:00;19.90;99.90
12115;DHT22;6121;49.810;6.418;2022-10-30T13:45:36;20.10;99.90
12115;DHT22;6121;49.810;6.418;2022-10-30T13:48:26;20.20;99.90
12115;DHT22;6121;49.810;6.418;2022-10-30T13:53:25;20.30;99.90
12115;DHT22;6121;49.810;6.418;2022-10-30T13:55:54;20.30;99.90
12115;DHT22;6121;49.810;6.418;2022-10-30T14:01:16;20.30;99.90
12115;DHT22;6121;49.810;6.418;2022-10-30T14:04:12;20.40;99.90
12115;DHT22;6121;49.810;6.418;2022-10-30T14:09:23;20.40;99.90
12115;DHT22;6121;49.810;6.418;2022-10-30T14:11:52;20.40;99.90
12115;DHT22;6121;49.810;6.418;2022-10-30T14:17:08;20.50;99.90
12115;DHT22;6121;49.810;6.418;2022-10-30T14:22:32;20.60;99.90
12115;DHT22;6121;49.810;6.418;2022-10-30T14:24:59;20.60;99.90
12115;DHT22;6121;49.810;6.418;2022-10-30T14:27:28;20.60;99.90
12115;DHT22;6121;49.810;6.418;2022-10-30T14:29:54;20.60;99.90
12115;DHT22;6121;49.810;6.418;2022-10-30T14:39:48;20.50;99.90
12115;DHT22;6121;49.810;6.418;2022-10-30T14:42:45;20.40;99.90
12115;DHT22;6121;49.810;6.418;2022-10-30T14:58:42;20.20;99.90
12115;DHT22;6121;49.810;6.418;2022-10-30T15:14:40;19.90;99.90
12115;DHT22;6121;49.810;6.418;2022-10-30T15:17:33;19.90;99.90
12115;DHT22;6121;49.810;6.418;2022-10-30T15:20:04;19.90;99.90
12115;DHT22;6121;49.810;6.418;2022-10-30T15:22:32;19.80;99.90
12115;DHT22;6121;49.810;6.418;2022-10-30T15:25:00;19.70;99.90
12115;DHT22;6121;49.810;6.418;2022-10-30T15:27:26;19.70;99.90
12115;DHT22;6121;49.810;6.418;2022-10-30T15:29:55;19.70;99.90
12115;DHT22;6121;49.810;6.418;2022-10-30T15:32:23;19.60;99.90
12115;DHT22;6121;49.810;6.418;2022-10-30T15:34:56;19.50;99.90
12115;DHT22;6121;49.810;6.418;2022-10-30T15:37:24;19.40;99.90
12115;DHT22;6121;49.810;6.418;2022-10-30T15:40:17;19.40;99.90
12115;DHT22;6121;49.810;6.418;2022-10-30T15:42:44;19.30;99.90
12115;DHT22;6121;49.810;6.418;2022-10-30T15:45:19;19.20;99.90
12115;DHT22;6121;49.810;6.418;2022-10-30T15:47:47;19.10;99.90
12115;DHT22;6121;49.810;6.418;2022-10-30T15:50:15;19.10;99.90
12115;DHT22;6121;49.810;6.418;2022-10-30T15:52:42;19.00;99.90
12115;DHT22;6121;49.810;6.418;2022-10-30T15:55:15;19.00;99.90
12115;DHT22;6121;49.810;6.418;2022-10-30T15:57:44;18.90;99.90
12115;DHT22;6121;49.810;6.418;2022-10-30T16:00:21;18.70;99.90
12115;DHT22;6121;49.810;6.418;2022-10-30T16:02:57;18.60;99.90
12115;DHT22;6121;49.810;6.418;2022-10-30T16:05:24;18.60;99.90
12115;DHT22;6121;49.810;6.418;2022-10-30T16:07:54;18.50;99.90
12115;DHT22;6121;49.810;6.418;2022-10-30T16:10:22;18.50;99.90
12115;DHT22;6121;49.810;6.418;2022-10-30T16:12:48;18.30;99.90
12115;DHT22;6121;49.810;6.418;2022-10-30T16:15:30;18.30;99.90
12115;DHT22;6121;49.810;6.418;2022-10-30T16:18:13;18.10;99.90
12115;DHT22;6121;49.810;6.418;2022-10-30T16:20:42;17.90;99.90
12115;DHT22;6121;49.810;6.418;2022-10-30T16:23:09;17.90;99.90
12115;DHT22;6121;49.810;6.418;2022-10-30T16:25:36;17.90;99.90
12115;DHT22;6121;49.810;6.418;2022-10-30T16:28:04;17.80;99.90
12115;DHT22;6121;49.810;6.418;2022-10-30T16:30:31;17.80;99.90
12115;DHT22;6121;49.810;6.418;2022-10-30T16:32:58;17.70;99.90
12115;DHT22;6121;49.810;6.418;2022-10-30T16:35:25;17.60;99.90
12115;DHT22;6121;49.810;6.418;2022-10-30T16:37:51;17.50;99.90
12115;DHT22;6121;49.810;6.418;2022-10-30T16:40:24;17.40;99.90
12115;DHT22;6121;49.810;6.418;2022-10-30T16:42:57;17.50;99.90
12115;DHT22;6121;49.810;6.418;2022-10-30T16:47:55;17.20;99.90
12115;DHT22;6121;49.810;6.418;2022-10-30T16:50:29;17.20;99.90
12115;DHT22;6121;49.810;6.418;2022-10-30T16:53:04;17.20;99.90
12115;DHT22;6121;49.810;6.418;2022-10-30T16:55:30;17.00;99.90
12115;DHT22;6121;49.810;6.418;2022-10-30T16:57:57;17.10;99.90
12115;DHT22;6121;49.810;6.418;2022-10-30T17:00:32;17.00;99.90
12115;DHT22;6121;49.810;6.418;2022-10-30T17:03:06;17.00;99.90
12115;DHT22;6121;49.810;6.418;2022-10-30T17:05:33;16.90;99.90
12115;DHT22;6121;49.810;6.418;2022-10-30T17:08:27;16.80;99.90
12115;DHT22;6121;49.810;6.418;2022-10-30T17:13:36;16.60;99.90
12115;DHT22;6121;49.810;6.418;2022-10-30T17:18:54;16.50;99.90
12115;DHT22;6121;49.810;6.418;2022-10-30T17:23:56;16.40;99.90
12115;DHT22;6121;49.810;6.418;2022-10-30T17:26:25;16.40;99.90
12115;DHT22;6121;49.810;6.418;2022-10-30T17:28:51;16.30;99.90
12115;DHT22;6121;49.810;6.418;2022-10-30T17:33:44;16.10;99.90
12115;DHT22;6121;49.810;6.418;2022-10-30T17:36:10;16.10;99.90
12115;DHT22;6121;49.810;6.418;2022-10-30T17:38:35;16.00;99.90
12115;DHT22;6121;49.810;6.418;2022-10-30T17:41:02;16.00;99.90
12115;DHT22;6121;49.810;6.418;2022-10-30T17:43:30;15.80;99.90
12115;DHT22;6121;49.810;6.418;2022-10-30T17:45:57;15.80;99.90
12115;DHT22;6121;49.810;6.418;2022-10-30T17:48:26;15.70;99.90
12115;DHT22;6121;49.810;6.418;2022-10-30T17:50:53;15.70;99.90
12115;DHT22;6121;49.810;6.418;2022-10-30T17:53:21;15.60;99.90
12115;DHT22;6121;49.810;6.418;2022-10-30T17:55:58;15.60;99.90
12115;DHT22;6121;49.810;6.418;2022-10-30T17:58:24;15.50;99.90
12115;DHT22;6121;49.810;6.418;2022-10-30T18:00:50;15.50;99.90
12115;DHT22;6121;49.810;6.418;2022-10-30T18:03:16;15.40;99.90
12115;DHT22;6121;49.810;6.418;2022-10-30T18:05:42;15.40;99.90
12115;DHT22;6121;49.810;6.418;2022-10-30T18:08:09;15.40;99.90
12115;DHT22;6121;49.810;6.418;2022-10-30T18:10:34;15.30;99.90
12115;DHT22;6121;49.810;6.418;2022-10-30T18:13:00;15.20;99.90
12115;DHT22;6121;49.810;6.418;2022-10-30T18:15:32;15.10;99.90
12115;DHT22;6121;49.810;6.418;2022-10-30T18:17:58;15.10;99.90
12115;DHT22;6121;49.810;6.418;2022-10-30T18:20:25;15.00;99.90
12115;DHT22;6121;49.810;6.418;2022-10-30T18:22:51;14.90;99.90
12115;DHT22;6121;49.810;6.418;2022-10-30T18:25:31;14.80;99.90
12115;DHT22;6121;49.810;6.418;2022-10-30T18:27:57;14.80;99.90